createdAt,value
2022-10-14T05:35:06.276Z,101084.59
2022-10-14T05:40:31.989Z,101088.16
2022-10-14T05:45:53.816Z,101084.19
2022-10-14T05:51:15.753Z,101091.72
2022-10-14T05:56:37.516Z,101081.00
2022-10-14T06:01:58.578Z,101088.53
2022-10-14T06:07:19.937Z,101090.22
2022-10-14T06:12:40.663Z,101095.09
2022-10-14T06:18:01.730Z,101100.66
2022-10-14T06:23:22.762Z,101095.31
2022-10-14T06:28:44.183Z,101083.41
2022-10-14T06:34:06.027Z,101092.97
2022-10-14T06:39:27.176Z,101095.09
2022-10-14T06:44:48.056Z,101098.41
2022-10-14T06:50:08.902Z,101097.28
2022-10-14T06:55:29.841Z,101104.09
2022-10-14T07:00:50.634Z,101107.31
2022-10-14T07:06:11.620Z,101112.63
2022-10-14T07:11:32.816Z,101107.53
2022-10-14T07:16:53.819Z,101108.38
2022-10-14T07:22:16.430Z,101102.13
2022-10-14T07:27:37.613Z,101105.66
2022-10-14T07:33:01.824Z,101110.31
2022-10-14T07:38:22.922Z,101109.50
2022-10-14T07:43:49.421Z,101116.47
2022-10-14T07:49:19.223Z,101120.16
2022-10-14T07:54:39.760Z,101116.44
2022-10-14T08:00:00.485Z,101118.72
2022-10-14T08:05:38.669Z,101124.47
2022-10-14T08:11:21.932Z,101140.53
2022-10-14T08:16:42.790Z,101126.38
2022-10-14T08:22:03.691Z,101135.94
2022-10-14T08:27:26.683Z,101125.81
2022-10-14T08:32:47.623Z,101114.53
2022-10-14T08:38:08.415Z,101101.56
2022-10-14T08:43:40.343Z,101109.81
2022-10-14T08:49:15.394Z,101106.19
2022-10-14T08:54:49.554Z,101106.13
2022-10-14T09:00:21.095Z,101096.50
2022-10-14T09:05:42.736Z,101096.63
2022-10-14T09:11:04.004Z,101086.88
2022-10-14T09:16:31.564Z,101095.13
2022-10-14T09:21:55.769Z,101090.19
2022-10-14T09:27:22.807Z,101094.72
2022-10-14T09:32:50.936Z,101091.75
2022-10-14T09:38:13.018Z,101098.88
2022-10-14T09:43:34.004Z,101107.53
2022-10-14T09:48:56.652Z,101088.22
2022-10-14T09:54:23.520Z,101091.75
2022-10-14T09:59:58.888Z,101096.50
2022-10-14T10:05:29.436Z,101080.84
2022-10-14T10:11:03.671Z,101078.63
2022-10-14T10:16:32.855Z,101072.00
2022-10-14T10:21:54.039Z,101065.13
2022-10-14T10:27:27.526Z,101041.63
2022-10-14T10:32:54.902Z,101042.31
2022-10-14T10:38:39.098Z,101030.16
2022-10-14T10:44:22.542Z,101032.44
2022-10-14T10:50:11.720Z,101022.63
2022-10-14T10:55:35.824Z,101019.22
2022-10-14T11:01:07.987Z,101015.91
2022-10-14T11:07:12.259Z,101009.28
2022-10-14T11:12:39.479Z,101006.88
2022-10-14T11:18:05.604Z,101009.84
2022-10-14T11:23:47.825Z,101007.25
2022-10-14T11:29:30.527Z,100990.03
2022-10-14T11:35:00.676Z,100993.53
2022-10-14T11:40:25.918Z,100989.19
2022-10-14T11:45:52.851Z,100985.44
2022-10-14T11:51:42.232Z,100984.88
2022-10-14T11:57:25.092Z,100984.41
2022-10-14T12:02:58.596Z,100973.91
2022-10-14T12:08:42.725Z,100966.09
2022-10-14T12:14:12.395Z,100967.38
2022-10-14T12:19:33.946Z,100961.31
2022-10-14T12:24:59.238Z,100957.41
2022-10-14T12:30:32.919Z,100949.47
2022-10-14T12:36:01.365Z,100952.22
2022-10-14T12:41:43.667Z,100957.41
2022-10-14T12:47:05.287Z,100946.91
2022-10-14T12:52:31.187Z,100941.16
2022-10-14T12:58:05.157Z,100940.34
2022-10-14T13:03:30.696Z,100931.75
2022-10-14T13:09:13.236Z,100934.84
2022-10-14T13:14:59.977Z,100934.44
2022-10-14T13:20:36.145Z,100926.41
2022-10-14T13:26:10.009Z,100929.25
2022-10-14T13:31:37.277Z,100919.28
2022-10-14T13:37:28.107Z,100909.47
2022-10-14T13:42:52.312Z,100910.75
2022-10-14T13:48:16.977Z,100894.97
2022-10-14T13:53:59.935Z,100889.91
2022-10-14T13:59:43.522Z,100882.28
2022-10-14T14:05:05.705Z,100875.41
2022-10-14T14:10:27.320Z,100881.91
2022-10-14T14:15:54.683Z,100867.63
2022-10-14T14:21:15.982Z,100868.50
2022-10-14T14:26:38.911Z,100869.88
2022-10-14T14:32:08.291Z,100879.66
2022-10-14T14:37:55.621Z,100877.06
2022-10-14T14:43:13.638Z,100869.81
2022-10-14T14:48:35.161Z,100870.88
2022-10-14T14:53:56.219Z,100871.97
2022-10-14T14:59:25.773Z,100870.50
2022-10-14T15:04:50.521Z,100866.88
2022-10-14T15:10:30.380Z,100860.38
2022-10-14T15:15:54.707Z,100850.47
2022-10-14T15:21:21.345Z,100856.88
2022-10-14T15:26:42.094Z,100850.34
2022-10-14T15:32:13.708Z,100850.78
2022-10-14T15:37:34.499Z,100845.22
2022-10-14T15:42:56.061Z,100840.53
2022-10-14T15:48:19.860Z,100826.44
2022-10-14T15:53:40.782Z,100825.88
2022-10-14T15:59:01.884Z,100823.00
2022-10-14T16:04:24.913Z,100812.34
2022-10-14T16:09:45.609Z,100815.19
2022-10-14T16:15:55.131Z,100816.75
2022-10-14T16:21:17.257Z,100812.00
2022-10-14T16:26:38.956Z,100824.28
2022-10-14T16:32:00.636Z,100816.06
2022-10-14T16:37:21.431Z,100809.50
2022-10-14T16:42:42.309Z,100819.22
2022-10-14T16:48:03.259Z,100809.22
2022-10-14T16:53:50.397Z,100813.66
2022-10-14T16:59:13.110Z,100815.59
2022-10-14T17:04:33.934Z,100810.47
2022-10-14T17:09:54.528Z,100810.94
2022-10-14T17:15:15.891Z,100814.88
2022-10-14T17:20:36.956Z,100811.03
2022-10-14T17:25:58.396Z,100810.78
2022-10-14T17:31:20.549Z,100807.13
2022-10-14T17:36:41.762Z,100804.31
2022-10-14T17:42:04.190Z,100804.31
2022-10-14T17:47:26.743Z,100808.50
2022-10-14T17:52:47.454Z,100801.81
2022-10-14T17:58:08.094Z,100799.41
2022-10-14T18:03:28.808Z,100796.00
2022-10-14T18:08:52.744Z,100787.25
2022-10-14T18:14:14.184Z,100785.63
2022-10-14T18:19:35.098Z,100783.94
2022-10-14T18:24:55.890Z,100775.31
2022-10-14T18:30:16.772Z,100765.75
2022-10-14T18:35:37.577Z,100765.56
2022-10-14T18:41:04.744Z,100763.56
2022-10-14T18:46:28.247Z,100756.50
2022-10-14T18:51:49.229Z,100757.63
2022-10-14T18:57:14.780Z,100754.78
2022-10-14T19:02:35.553Z,100757.94
2022-10-14T19:07:57.094Z,100739.47
2022-10-14T19:13:18.063Z,100730.50
2022-10-14T19:18:38.837Z,100727.91
2022-10-14T19:24:01.815Z,100736.72
2022-10-14T19:29:22.658Z,100744.88
2022-10-14T19:34:47.159Z,100732.41
2022-10-14T19:40:08.450Z,100738.28
2022-10-14T19:45:29.432Z,100734.34
2022-10-14T19:50:50.097Z,100717.75
2022-10-14T19:56:12.453Z,100716.94
2022-10-14T20:01:33.764Z,100702.78
2022-10-14T20:06:55.308Z,100701.00
2022-10-14T20:12:16.351Z,100696.31
2022-10-14T20:17:37.175Z,100687.19
2022-10-14T20:22:57.918Z,100687.22
2022-10-14T20:28:19.682Z,100688.91
2022-10-14T20:33:40.940Z,100675.09
2022-10-14T20:39:01.989Z,100683.88
2022-10-14T20:44:23.960Z,100678.25
2022-10-14T20:49:44.774Z,100670.38
2022-10-14T20:55:06.201Z,100668.03
2022-10-14T21:00:26.988Z,100661.94
2022-10-14T21:05:47.839Z,100657.94
2022-10-14T21:11:15.038Z,100662.47
2022-10-14T21:16:37.261Z,100649.22
2022-10-14T21:21:58.209Z,100636.69
2022-10-14T21:27:19.333Z,100616.31
2022-10-14T21:32:40.170Z,100607.81
2022-10-14T21:38:01.151Z,100589.91
2022-10-14T21:43:21.840Z,100577.91
2022-10-14T21:48:43.596Z,100586.50
2022-10-14T21:54:05.332Z,100579.66
